createdAt,value
2018-07-05T00:00:19.731Z,60.76
2018-07-05T00:02:45.794Z,60.86
2018-07-05T00:05:11.763Z,60.70
2018-07-05T00:07:37.768Z,61.23
2018-07-05T00:10:03.737Z,61.24
2018-07-05T00:12:29.838Z,60.62
2018-07-05T00:14:55.843Z,61.42
2018-07-05T00:17:21.816Z,61.33
2018-07-05T00:19:47.886Z,60.47
2018-07-05T00:22:13.869Z,61.06
2018-07-05T00:24:39.853Z,60.42
2018-07-05T00:27:05.824Z,61.28
2018-07-05T00:29:31.828Z,61.35
2018-07-05T00:31:57.811Z,61.28
2018-07-05T00:34:23.812Z,60.46
2018-07-05T00:36:49.876Z,60.32
2018-07-05T00:39:15.843Z,60.72
2018-07-05T00:41:41.832Z,61.33
2018-07-05T00:44:07.805Z,60.61
2018-07-05T00:46:33.800Z,60.67
2018-07-05T00:48:59.831Z,61.15
2018-07-05T00:51:25.780Z,60.65
2018-07-05T00:53:51.821Z,60.37
2018-07-05T00:56:17.789Z,60.89
2018-07-05T00:58:43.795Z,60.49
2018-07-05T01:01:09.752Z,60.20
2018-07-05T01:03:35.739Z,61.20
2018-07-05T01:06:01.705Z,60.61
2018-07-05T01:08:27.730Z,60.79
2018-07-05T01:10:53.703Z,60.70
2018-07-05T01:13:19.696Z,61.24
2018-07-05T01:15:45.686Z,61.03
2018-07-05T01:18:11.633Z,60.30
2018-07-05T01:20:37.591Z,60.43
2018-07-05T01:23:03.549Z,60.36
2018-07-05T01:25:29.531Z,60.98
2018-07-05T01:27:55.502Z,60.00
2018-07-05T01:30:21.482Z,60.53
2018-07-05T01:32:47.437Z,60.66
2018-07-05T01:35:13.413Z,61.08
2018-07-05T01:37:39.382Z,60.87
2018-07-05T01:40:05.345Z,61.65
2018-07-05T01:42:31.353Z,61.06
2018-07-05T01:44:57.312Z,61.17
2018-07-05T01:47:23.296Z,61.68
2018-07-05T01:49:49.290Z,60.63
2018-07-05T01:52:15.286Z,61.01
2018-07-05T01:54:41.252Z,60.27
2018-07-05T01:57:07.241Z,60.66
2018-07-05T01:59:33.209Z,60.88
2018-07-05T02:01:59.209Z,60.57
2018-07-05T02:04:25.182Z,60.67
2018-07-05T02:06:51.154Z,60.39
2018-07-05T02:09:17.164Z,61.24
2018-07-05T02:11:43.130Z,61.34
2018-07-05T02:14:09.110Z,61.06
2018-07-05T02:16:35.093Z,60.53
2018-07-05T02:19:01.074Z,60.26
2018-07-05T02:21:27.082Z,60.38
2018-07-05T02:23:53.053Z,60.73
2018-07-05T02:26:19.079Z,60.77
2018-07-05T02:28:45.038Z,60.97
2018-07-05T02:31:11.013Z,61.23
2018-07-05T02:33:36.988Z,60.66
2018-07-05T02:36:02.982Z,60.44
2018-07-05T02:38:28.959Z,61.11
2018-07-05T02:40:54.949Z,60.80
2018-07-05T02:43:20.968Z,60.45
2018-07-05T02:45:46.936Z,60.73
2018-07-05T02:48:12.901Z,60.55
2018-07-05T02:50:38.880Z,60.56
2018-07-05T02:53:04.866Z,60.79
2018-07-05T02:55:30.826Z,61.22
2018-07-05T02:57:56.810Z,60.20
2018-07-05T03:00:22.785Z,60.88
2018-07-05T03:02:48.790Z,60.13
2018-07-05T03:05:15.352Z,60.18
2018-07-05T03:07:41.353Z,60.28
2018-07-05T03:10:07.328Z,60.65
2018-07-05T03:12:33.350Z,61.16
2018-07-05T03:14:59.308Z,60.06
2018-07-05T03:17:25.293Z,60.27
2018-07-05T03:19:51.293Z,60.51
2018-07-05T03:22:17.270Z,60.26
2018-07-05T03:24:43.265Z,61.28
2018-07-05T03:27:09.237Z,61.15
2018-07-05T03:29:35.186Z,60.19
2018-07-05T03:32:01.160Z,61.31
2018-07-05T03:34:27.141Z,61.21
2018-07-05T03:36:53.145Z,60.81
2018-07-05T03:39:19.117Z,61.04
2018-07-05T03:41:45.121Z,60.27
2018-07-05T03:44:11.073Z,59.82
2018-07-05T03:46:37.083Z,61.03
2018-07-05T03:49:03.091Z,60.27
2018-07-05T03:51:29.069Z,60.62
2018-07-05T03:53:55.047Z,60.84
2018-07-05T03:56:21.032Z,60.12
2018-07-05T03:58:47.019Z,60.03
2018-07-05T04:01:12.999Z,60.89
2018-07-05T04:03:39.003Z,60.51
2018-07-05T04:06:05.004Z,60.73
2018-07-05T04:08:30.992Z,59.92
2018-07-05T04:10:56.975Z,60.60
2018-07-05T04:13:22.988Z,60.32
2018-07-05T04:15:49.003Z,60.21
2018-07-05T04:18:14.951Z,59.38
2018-07-05T04:20:41.075Z,59.22
2018-07-05T04:23:07.026Z,59.98
2018-07-05T04:25:32.997Z,59.56
2018-07-05T04:27:58.956Z,59.71
2018-07-05T04:30:24.926Z,60.15
2018-07-05T04:32:50.920Z,59.61
2018-07-05T04:35:16.936Z,59.39
2018-07-05T04:37:42.922Z,60.34
2018-07-05T04:40:08.910Z,59.94
2018-07-05T04:42:34.950Z,59.54
2018-07-05T04:45:00.932Z,60.04
2018-07-05T04:47:26.898Z,60.43
2018-07-05T04:49:52.858Z,60.09
2018-07-05T04:52:18.850Z,59.85
2018-07-05T04:54:44.862Z,59.89
2018-07-05T04:57:10.852Z,60.18
2018-07-05T04:59:36.871Z,59.90
2018-07-05T05:02:02.822Z,59.69
2018-07-05T05:04:28.798Z,59.52
2018-07-05T05:06:54.776Z,59.48
2018-07-05T05:09:20.777Z,59.15
2018-07-05T05:11:46.742Z,59.90
2018-07-05T05:14:12.712Z,59.33
2018-07-05T05:16:38.727Z,58.80
2018-07-05T05:19:04.696Z,59.20
2018-07-05T05:21:30.673Z,58.34
2018-07-05T05:23:56.637Z,59.46
2018-07-05T05:26:22.614Z,59.48
2018-07-05T05:28:48.601Z,59.39
2018-07-05T05:31:14.582Z,58.54
2018-07-05T05:33:40.556Z,58.11
2018-07-05T05:36:06.572Z,58.71
2018-07-05T05:38:32.632Z,58.07
2018-07-05T05:40:58.599Z,57.37
2018-07-05T05:43:24.586Z,57.69
2018-07-05T05:45:50.568Z,57.87
2018-07-05T05:48:16.670Z,58.31
2018-07-05T05:50:42.664Z,58.23
2018-07-05T05:53:08.684Z,58.12
2018-07-05T05:55:34.751Z,57.84
2018-07-05T05:58:00.752Z,57.00
2018-07-05T06:00:26.788Z,57.98
2018-07-05T06:02:52.909Z,57.25
2018-07-05T06:05:18.908Z,58.05
2018-07-05T06:07:44.896Z,57.31
2018-07-05T06:10:10.944Z,56.89
2018-07-05T06:12:37.092Z,56.83
2018-07-05T06:15:03.088Z,57.30
2018-07-05T06:17:29.131Z,57.81
2018-07-05T06:19:55.124Z,56.81
2018-07-05T06:22:21.110Z,56.87
2018-07-05T06:24:47.074Z,57.19
2018-07-05T06:27:13.097Z,57.05
2018-07-05T06:29:39.074Z,57.49
2018-07-05T06:32:05.056Z,58.33
2018-07-05T06:34:31.022Z,56.84
2018-07-05T06:36:57.069Z,57.45
2018-07-05T06:39:23.053Z,58.04
2018-07-05T06:41:49.055Z,58.46
2018-07-05T06:44:15.011Z,57.23
2018-07-05T06:46:40.999Z,57.45
2018-07-05T06:49:06.955Z,57.34
2018-07-05T06:51:32.945Z,57.85
2018-07-05T06:53:58.923Z,57.38
2018-07-05T06:56:24.894Z,56.96
2018-07-05T06:58:50.877Z,57.54
2018-07-05T07:01:16.907Z,57.75
2018-07-05T07:03:42.871Z,57.47
2018-07-05T07:06:08.859Z,57.07
2018-07-05T07:08:34.848Z,56.64
2018-07-05T07:11:00.830Z,56.85
2018-07-05T07:13:26.817Z,56.32
2018-07-05T07:15:52.770Z,56.00
2018-07-05T07:18:18.765Z,56.45
2018-07-05T07:20:44.736Z,55.64
2018-07-05T07:23:10.695Z,55.70
2018-07-05T07:25:36.693Z,55.85
2018-07-05T07:28:02.668Z,56.37
2018-07-05T07:30:28.797Z,55.09
2018-07-05T07:32:54.781Z,55.77
2018-07-05T07:35:20.765Z,56.04
2018-07-05T07:37:46.742Z,56.05
2018-07-05T07:40:12.718Z,56.42
2018-07-05T07:42:38.733Z,56.79
2018-07-05T07:45:04.702Z,55.87
2018-07-05T07:47:30.682Z,55.92
2018-07-05T07:49:56.674Z,55.75
2018-07-05T07:52:22.645Z,56.76
2018-07-05T07:54:48.646Z,56.80
2018-07-05T07:57:14.607Z,56.52
2018-07-05T07:59:40.576Z,56.13
2018-07-05T08:02:06.577Z,55.00
2018-07-05T08:04:32.580Z,55.53
2018-07-05T08:06:58.574Z,57.08
2018-07-05T08:09:24.690Z,55.42
2018-07-05T08:11:50.672Z,55.31
2018-07-05T08:14:16.632Z,56.03
2018-07-05T08:16:42.626Z,56.31
2018-07-05T08:19:08.602Z,56.39
2018-07-05T08:21:34.598Z,55.68
2018-07-05T08:24:00.612Z,55.70
2018-07-05T08:26:26.590Z,55.49
2018-07-05T08:28:52.574Z,56.02
2018-07-05T08:31:18.570Z,55.91
2018-07-05T08:33:44.713Z,55.22
2018-07-05T08:36:10.675Z,56.40
2018-07-05T08:38:36.655Z,56.53
2018-07-05T08:41:02.655Z,56.15
2018-07-05T08:43:28.643Z,56.44
2018-07-05T08:45:54.611Z,57.17
2018-07-05T08:48:20.551Z,56.55
2018-07-05T08:50:46.525Z,55.59
2018-07-05T08:53:12.475Z,56.41
2018-07-05T08:55:38.442Z,55.95
2018-07-05T08:58:04.425Z,55.09
2018-07-05T09:00:30.408Z,56.26
2018-07-05T09:02:56.363Z,55.54
2018-07-05T09:05:22.428Z,56.03
2018-07-05T09:07:48.325Z,55.13
2018-07-05T09:10:14.318Z,56.80
2018-07-05T09:12:40.280Z,56.61
2018-07-05T09:15:06.280Z,57.04
2018-07-05T09:17:32.373Z,56.28
2018-07-05T09:19:58.311Z,55.31
2018-07-05T09:22:24.295Z,57.06
2018-07-05T09:24:50.289Z,56.28
2018-07-05T09:27:16.292Z,56.29
2018-07-05T09:29:42.269Z,55.65
2018-07-05T09:32:08.229Z,56.61
2018-07-05T09:34:34.231Z,57.13
2018-07-05T09:37:00.234Z,57.26
2018-07-05T09:39:26.225Z,56.20
2018-07-05T09:41:52.226Z,56.37
2018-07-05T09:44:18.315Z,56.63
2018-07-05T09:46:44.297Z,56.84
2018-07-05T09:49:10.266Z,56.11
2018-07-05T09:51:36.241Z,56.77
2018-07-05T09:54:02.242Z,56.33
2018-07-05T09:56:28.227Z,56.81
2018-07-05T09:58:54.217Z,56.63
2018-07-05T10:01:20.368Z,57.11
2018-07-05T10:03:46.350Z,57.47
2018-07-05T10:06:12.348Z,57.57
2018-07-05T10:08:38.343Z,56.55
2018-07-05T10:11:04.301Z,56.59
2018-07-05T10:13:30.381Z,57.15
2018-07-05T10:15:56.348Z,57.39
2018-07-05T10:18:22.323Z,57.05
2018-07-05T10:20:48.320Z,56.78
2018-07-05T10:23:14.314Z,57.23
2018-07-05T10:25:40.347Z,57.02
2018-07-05T10:28:06.332Z,58.30
2018-07-05T10:30:32.294Z,57.52
2018-07-05T10:32:58.415Z,57.09
2018-07-05T10:35:24.288Z,57.48
2018-07-05T10:37:50.262Z,57.60
2018-07-05T10:40:16.238Z,58.19
2018-07-05T10:42:42.197Z,58.08
2018-07-05T10:45:08.154Z,57.76
2018-07-05T10:47:34.160Z,57.24
2018-07-05T10:50:00.107Z,56.84
2018-07-05T10:52:26.096Z,57.07
2018-07-05T10:54:52.212Z,57.16
2018-07-05T10:57:18.214Z,57.80
2018-07-05T10:59:44.171Z,56.98
2018-07-05T11:02:10.396Z,57.55
2018-07-05T11:04:36.405Z,56.83
2018-07-05T11:07:02.398Z,57.85
2018-07-05T11:09:28.383Z,58.15
2018-07-05T11:11:54.374Z,57.49
2018-07-05T11:14:20.388Z,57.96
2018-07-05T11:16:46.323Z,57.98
2018-07-05T11:19:12.329Z,58.01
2018-07-05T11:21:38.377Z,58.05
2018-07-05T11:24:04.363Z,58.22
2018-07-05T11:26:30.364Z,58.74
2018-07-05T11:28:56.320Z,58.65
2018-07-05T11:31:22.296Z,57.74
2018-07-05T11:33:48.369Z,57.59
2018-07-05T11:36:14.409Z,58.00
2018-07-05T11:38:40.373Z,57.31
2018-07-05T11:41:06.337Z,57.90
2018-07-05T11:43:32.336Z,57.76
2018-07-05T11:45:58.341Z,57.47
2018-07-05T11:48:25.360Z,57.11
2018-07-05T11:50:51.343Z,57.00
2018-07-05T11:53:17.417Z,57.22
2018-07-05T11:55:43.388Z,56.89
2018-07-05T11:58:09.364Z,57.43
2018-07-05T12:00:35.328Z,57.72
2018-07-05T12:03:01.273Z,58.02
2018-07-05T12:05:27.228Z,57.09
2018-07-05T12:07:53.250Z,56.72
2018-07-05T12:10:19.266Z,57.67
2018-07-05T12:12:45.224Z,57.95
2018-07-05T12:15:11.253Z,58.36
2018-07-05T12:17:37.239Z,56.86
2018-07-05T12:20:03.231Z,56.48
2018-07-05T12:22:29.203Z,55.83
2018-07-05T12:24:55.205Z,56.56
2018-07-05T12:27:21.174Z,54.46
2018-07-05T12:29:47.154Z,55.78
2018-07-05T12:32:13.137Z,56.87
2018-07-05T12:34:39.096Z,56.70
2018-07-05T12:37:05.068Z,56.34
2018-07-05T12:39:31.092Z,56.43
2018-07-05T12:41:56.992Z,56.10
2018-07-05T12:44:22.956Z,55.56
2018-07-05T12:46:48.927Z,55.88
2018-07-05T12:49:14.883Z,55.59
2018-07-05T12:51:40.878Z,55.78
2018-07-05T12:54:06.859Z,55.27
2018-07-05T12:56:32.837Z,56.25
2018-07-05T12:58:58.805Z,55.79
2018-07-05T13:01:24.799Z,56.27
2018-07-05T13:03:50.780Z,57.07
2018-07-05T13:06:16.738Z,56.72
2018-07-05T13:08:42.717Z,56.06
2018-07-05T13:11:08.683Z,56.28
2018-07-05T13:13:34.663Z,56.26
2018-07-05T13:16:00.640Z,56.17
2018-07-05T13:18:26.627Z,56.83
2018-07-05T13:20:52.617Z,55.74
2018-07-05T13:23:18.594Z,55.96
2018-07-05T13:25:44.584Z,56.52
2018-07-05T13:28:10.548Z,56.95
2018-07-05T13:30:36.534Z,55.53
2018-07-05T13:33:02.564Z,55.88
2018-07-05T13:35:28.476Z,54.72
2018-07-05T13:37:54.566Z,56.03
2018-07-05T13:40:20.525Z,56.75
2018-07-05T13:42:46.487Z,55.78
2018-07-05T13:45:12.500Z,55.72
2018-07-05T13:47:38.433Z,56.52
2018-07-05T13:50:04.413Z,56.35
2018-07-05T13:52:30.372Z,56.12
2018-07-05T13:54:56.372Z,55.04
2018-07-05T13:57:22.366Z,56.05
2018-07-05T13:59:48.364Z,55.69
2018-07-05T14:02:14.393Z,56.97
2018-07-05T14:04:40.354Z,54.80
2018-07-05T14:07:06.313Z,56.04
2018-07-05T14:09:32.277Z,56.49
2018-07-05T14:11:59.349Z,56.27
2018-07-05T14:14:25.602Z,54.97
2018-07-05T14:16:51.552Z,55.29
2018-07-05T14:19:17.530Z,56.23
2018-07-05T14:21:43.520Z,55.09
2018-07-05T14:24:09.598Z,56.28
2018-07-05T14:26:35.625Z,55.75
2018-07-05T14:29:01.863Z,56.35
2018-07-05T14:31:28.172Z,57.17
2018-07-05T14:33:54.171Z,57.23
2018-07-05T14:36:20.251Z,55.56
2018-07-05T14:38:46.295Z,53.97
2018-07-05T14:41:12.227Z,56.70
2018-07-05T14:43:38.243Z,56.54
2018-07-05T14:46:04.214Z,56.95
2018-07-05T14:48:30.281Z,56.36
2018-07-05T14:50:56.521Z,54.67
2018-07-05T14:53:22.517Z,55.02
2018-07-05T14:55:48.596Z,55.61
2018-07-05T14:58:14.602Z,55.14
2018-07-05T15:00:40.628Z,55.25
2018-07-05T15:03:06.677Z,56.69
2018-07-05T15:05:32.712Z,56.69
2018-07-05T15:07:58.801Z,56.49
2018-07-05T15:10:24.801Z,55.78
2018-07-05T15:12:50.789Z,55.53
2018-07-05T15:15:16.791Z,55.91
2018-07-05T15:17:42.872Z,55.93
2018-07-05T15:20:08.854Z,55.57
2018-07-05T15:22:34.919Z,55.78
2018-07-05T15:25:00.919Z,56.55
2018-07-05T15:27:26.972Z,55.82
2018-07-05T15:29:52.947Z,55.54
2018-07-05T15:32:18.920Z,54.43
2018-07-05T15:34:44.884Z,55.38
2018-07-05T15:37:11.161Z,55.91
2018-07-05T15:39:37.211Z,55.64
2018-07-05T15:42:03.177Z,56.45
2018-07-05T15:44:29.148Z,55.84
2018-07-05T15:46:55.123Z,55.99
2018-07-05T15:49:21.139Z,56.63
2018-07-05T15:51:47.248Z,55.72
2018-07-05T15:54:13.242Z,56.10
2018-07-05T15:56:39.309Z,55.48
2018-07-05T15:59:05.289Z,56.13
2018-07-05T16:01:31.527Z,54.94
2018-07-05T16:03:58.660Z,55.63
2018-07-05T16:06:24.698Z,55.72
2018-07-05T16:08:50.701Z,54.99
2018-07-05T16:11:16.691Z,55.73
2018-07-05T16:13:42.683Z,55.89
2018-07-05T16:16:09.635Z,54.64
2018-07-05T16:18:35.608Z,54.25
2018-07-05T16:21:01.594Z,54.62
2018-07-05T16:23:27.563Z,54.51
2018-07-05T16:25:53.579Z,54.92
2018-07-05T16:28:19.560Z,55.84
2018-07-05T16:30:45.554Z,55.39
2018-07-05T16:33:11.517Z,55.24
2018-07-05T16:35:37.545Z,54.70
2018-07-05T16:38:03.536Z,55.47
2018-07-05T16:40:29.508Z,56.18
2018-07-05T16:42:55.491Z,55.33
2018-07-05T16:45:21.485Z,55.08
2018-07-05T16:47:47.514Z,55.25
2018-07-05T16:50:13.496Z,55.50
2018-07-05T16:52:39.474Z,55.33
2018-07-05T16:55:05.452Z,55.78
2018-07-05T16:57:31.428Z,55.43
2018-07-05T16:59:57.415Z,55.49
2018-07-05T17:02:23.453Z,56.20
2018-07-05T17:04:49.440Z,55.25
2018-07-05T17:07:15.429Z,55.99
2018-07-05T17:09:41.448Z,55.59
2018-07-05T17:12:07.422Z,55.99
2018-07-05T17:14:33.437Z,55.99
2018-07-05T17:16:59.427Z,55.22
2018-07-05T17:19:25.436Z,55.58
2018-07-05T17:21:51.389Z,55.09
2018-07-05T17:24:17.394Z,54.81
2018-07-05T17:26:43.374Z,56.21
2018-07-05T17:29:09.349Z,55.96
2018-07-05T17:31:35.352Z,56.04
2018-07-05T17:34:01.315Z,55.75
2018-07-05T17:36:27.270Z,55.15
2018-07-05T17:38:53.249Z,55.54
2018-07-05T17:41:19.298Z,55.40
2018-07-05T17:43:45.266Z,54.92
2018-07-05T17:46:11.327Z,55.41
2018-07-05T17:48:37.252Z,56.23
2018-07-05T17:51:03.250Z,55.33
2018-07-05T17:53:29.234Z,55.58
2018-07-05T17:55:55.244Z,56.04
2018-07-05T17:58:21.241Z,55.07
2018-07-05T18:00:47.257Z,55.28
2018-07-05T18:03:13.242Z,55.42
2018-07-05T18:05:39.238Z,56.52
2018-07-05T18:08:05.236Z,54.18
2018-07-05T18:10:31.209Z,55.35
2018-07-05T18:12:57.205Z,55.26
2018-07-05T18:15:23.177Z,53.37
2018-07-05T18:17:49.160Z,53.98
2018-07-05T18:20:15.121Z,54.76
2018-07-05T18:22:41.138Z,54.81
2018-07-05T18:25:07.140Z,54.76
2018-07-05T18:27:33.116Z,53.34
2018-07-05T18:29:59.111Z,55.10
2018-07-05T18:32:25.195Z,54.41
2018-07-05T18:34:51.201Z,54.07
2018-07-05T18:37:17.173Z,54.61
2018-07-05T18:39:43.153Z,54.23
2018-07-05T18:42:09.112Z,54.06
2018-07-05T18:44:35.072Z,54.73
2018-07-05T18:47:01.744Z,55.23
2018-07-05T18:49:27.712Z,55.86
2018-07-05T18:51:53.740Z,55.23
2018-07-05T18:54:19.693Z,55.18
2018-07-05T18:56:45.680Z,55.15
2018-07-05T18:59:11.671Z,55.23
2018-07-05T19:01:37.653Z,54.76
2018-07-05T19:04:03.626Z,54.37
2018-07-05T19:06:29.608Z,53.90
2018-07-05T19:08:55.604Z,54.71
2018-07-05T19:11:21.618Z,54.92
2018-07-05T19:13:47.605Z,55.37
2018-07-05T19:16:13.710Z,55.03
2018-07-05T19:18:39.661Z,54.71
2018-07-05T19:21:05.692Z,55.02
2018-07-05T19:23:31.657Z,54.99
2018-07-05T19:25:57.742Z,54.84
2018-07-05T19:28:23.746Z,54.74
2018-07-05T19:30:49.777Z,54.32
2018-07-05T19:33:15.797Z,54.67
2018-07-05T19:35:41.827Z,53.66
2018-07-05T19:38:07.807Z,53.68
2018-07-05T19:40:33.829Z,53.72
2018-07-05T19:42:59.820Z,53.87
2018-07-05T19:45:25.804Z,54.10
2018-07-05T19:47:51.970Z,54.37
2018-07-05T19:50:17.984Z,53.82
2018-07-05T19:52:44.042Z,54.31
2018-07-05T19:55:10.052Z,53.33
2018-07-05T19:57:36.017Z,53.50
2018-07-05T20:00:02.194Z,53.29
2018-07-05T20:02:28.263Z,52.84
2018-07-05T20:04:54.521Z,53.83
2018-07-05T20:07:20.561Z,53.84
2018-07-05T20:09:46.537Z,53.46
2018-07-05T20:12:12.526Z,54.49
2018-07-05T20:14:38.524Z,53.33
2018-07-05T20:17:04.482Z,54.46
2018-07-05T20:19:30.462Z,54.18
2018-07-05T20:21:56.473Z,53.82
2018-07-05T20:24:22.476Z,52.86
2018-07-05T20:26:48.460Z,53.02
2018-07-05T20:29:14.482Z,53.06
2018-07-05T20:31:40.457Z,54.78
2018-07-05T20:34:06.436Z,52.67
2018-07-05T20:36:32.449Z,55.22
2018-07-05T20:38:58.447Z,53.69
2018-07-05T20:41:24.410Z,53.86
2018-07-05T20:43:50.449Z,53.88
2018-07-05T20:46:16.418Z,53.78
2018-07-05T20:48:42.393Z,54.97
2018-07-05T20:51:08.364Z,53.93
2018-07-05T20:53:34.368Z,54.65
2018-07-05T20:56:00.356Z,54.05
2018-07-05T20:58:26.425Z,53.18
2018-07-05T21:00:52.408Z,53.19
2018-07-05T21:03:18.388Z,54.03
2018-07-05T21:05:44.397Z,53.45
2018-07-05T21:08:10.384Z,54.48
2018-07-05T21:10:36.360Z,53.74
2018-07-05T21:13:02.370Z,53.83
2018-07-05T21:15:28.383Z,53.35
2018-07-05T21:17:54.373Z,52.64
2018-07-05T21:20:20.343Z,54.48
2018-07-05T21:22:46.335Z,52.64
2018-07-05T21:25:12.299Z,52.78
2018-07-05T21:27:38.256Z,53.24
2018-07-05T21:30:04.241Z,52.54
2018-07-05T21:32:30.211Z,52.90
2018-07-05T21:34:56.232Z,52.37
2018-07-05T21:37:22.208Z,53.20
2018-07-05T21:39:48.188Z,52.53
2018-07-05T21:42:14.187Z,53.07
2018-07-05T21:44:40.145Z,54.07
2018-07-05T21:47:06.161Z,50.80
2018-07-05T21:49:32.130Z,51.50
2018-07-05T21:51:58.127Z,52.06
2018-07-05T21:54:24.116Z,52.35
2018-07-05T21:56:50.111Z,50.96
2018-07-05T21:59:16.081Z,50.30
2018-07-05T22:01:42.155Z,50.56
2018-07-05T22:04:08.149Z,51.73
2018-07-05T22:06:34.127Z,50.28
2018-07-05T22:09:00.146Z,51.86
2018-07-05T22:11:26.162Z,51.18
2018-07-05T22:13:52.192Z,52.08
2018-07-05T22:16:18.156Z,52.11
2018-07-05T22:18:45.180Z,51.84
2018-07-05T22:21:11.187Z,53.26
2018-07-05T22:23:37.229Z,53.43
2018-07-05T22:26:03.427Z,52.89
2018-07-05T22:28:29.470Z,52.47
2018-07-05T22:30:55.534Z,51.42
2018-07-05T22:33:21.491Z,50.56
2018-07-05T22:35:47.456Z,51.98
2018-07-05T22:38:13.738Z,49.99
2018-07-05T22:40:39.752Z,51.09
2018-07-05T22:43:05.802Z,51.01
2018-07-05T22:45:31.799Z,51.41
2018-07-05T22:47:57.833Z,51.65
2018-07-05T22:50:23.812Z,50.72
2018-07-05T22:52:49.845Z,50.54
2018-07-05T22:55:15.927Z,52.05
2018-07-05T22:57:41.942Z,51.00
2018-07-05T23:00:07.973Z,51.42
2018-07-05T23:02:34.026Z,52.03
2018-07-05T23:04:59.989Z,51.76
2018-07-05T23:07:25.960Z,52.10
2018-07-05T23:09:52.644Z,51.08
2018-07-05T23:12:18.611Z,51.96
2018-07-05T23:14:44.570Z,50.73
2018-07-05T23:17:10.537Z,50.76
2018-07-05T23:19:36.579Z,51.05
2018-07-05T23:22:02.533Z,50.88
2018-07-05T23:24:28.527Z,50.93
2018-07-05T23:26:54.499Z,52.11
2018-07-05T23:29:20.513Z,51.43
2018-07-05T23:31:46.768Z,51.97
2018-07-05T23:34:12.752Z,51.94
2018-07-05T23:36:38.764Z,52.43
2018-07-05T23:39:04.755Z,52.09
2018-07-05T23:41:30.727Z,51.27
2018-07-05T23:43:56.710Z,52.30
2018-07-05T23:46:22.693Z,52.50
2018-07-05T23:48:48.665Z,52.39
2018-07-05T23:51:14.644Z,52.55
2018-07-05T23:53:40.604Z,52.42
2018-07-05T23:56:06.567Z,51.83
2018-07-05T23:58:32.652Z,51.80
